»·PEaware :: N8052T KCMA-L88

N8052T :: KCMA-L88

FLIGHT INFORMATION

Flight Status: Arrived
Operator: Privately registered:
United States
More flights under this callsign
Pilot: Lev B. (11997)
Aircraft: CESSNA 310
(C310)
More flights by this aircraft type
Origin: KCMA Camarillo
United States
Destination: L88 New Cuyama
United States
More flights between these airports :: More routes between these airports
Route: +HENER V485 FLW
File this flight plan on PilotEdge
Remarks:
Altitude:
(Current/Filed)
6,000ft
Speed:
(Current/Filed)
179kts
Departed: 06-Oct-18 07:01 PM
Arrived: 06-Oct-18 07:31 PM
Distance/Time
Traveled:
53nm/0:30
Distance/Time
To Go:
Arrived

Flight Plot

Page will automatically refresh every two minutes.

Flight plan parsing failed; only flown route is shown


Map Options




Map Legend


Flown Route
Filed Route
Departure Airport
Arrival Airport
Navaid (VOR, NDB)
Fix

Horizontal Profiles

Position Reports

Time Latitude Longitude Heading Altitude Ground
Speed
06-Oct-18 18:42 34.209842 -119.080591 83 75ft 0kts
06-Oct-18 18:43 34.209842 -119.080591 83 75ft 0kts
06-Oct-18 18:44 34.209842 -119.080591 83 75ft 0kts
06-Oct-18 18:45 34.209842 -119.080591 83 75ft 0kts
06-Oct-18 18:46 34.209842 -119.080591 83 75ft 0kts
06-Oct-18 18:47 34.209842 -119.080591 83 75ft 0kts
06-Oct-18 18:48 34.209842 -119.080591 83 75ft 0kts
06-Oct-18 18:49 34.209842 -119.080591 83 75ft 0kts
06-Oct-18 18:50 34.210478 -119.080791 312 75ft 7kts
06-Oct-18 18:51 34.210630 -119.080976 318 75ft 0kts
06-Oct-18 18:52 34.210630 -119.080976 318 75ft 0kts
06-Oct-18 18:53 34.210630 -119.080976 318 75ft 0kts
06-Oct-18 18:54 34.210778 -119.081201 293 75ft 8kts
06-Oct-18 18:55 34.210924 -119.084007 270 75ft 8kts
06-Oct-18 18:56 34.210950 -119.087360 270 75ft 11kts
06-Oct-18 18:57 34.210989 -119.091601 270 75ft 5kts
06-Oct-18 18:58 34.210999 -119.091810 263 75ft 7kts
06-Oct-18 18:59 34.210932 -119.084787 86 75ft 9kts
06-Oct-18 19:00 34.212887 -119.084622 359 75ft 0kts
06-Oct-18 19:01 34.212887 -119.084622 359 75ft 0kts
06-Oct-18 19:02 34.212887 -119.084622 359 75ft 0kts
06-Oct-18 19:03 34.213719 -119.088375 269 75ft 79kts
06-Oct-18 19:04 34.215343 -119.121559 277 1425ft 117kts
06-Oct-18 19:05 34.227029 -119.169178 289 1997ft 163kts
06-Oct-18 19:06 34.241393 -119.222136 285 2649ft 167kts
06-Oct-18 19:07 34.256155 -119.275341 285 3297ft 166kts
06-Oct-18 19:08 34.271837 -119.327700 285 3959ft 164kts
06-Oct-18 19:09 34.287213 -119.377283 285 4849ft 152kts
06-Oct-18 19:10 34.301981 -119.423316 285 5808ft 140kts
06-Oct-18 19:11 34.317168 -119.470396 286 5963ft 160kts
06-Oct-18 19:12 34.333834 -119.522172 286 5953ft 168kts
06-Oct-18 19:13 34.350812 -119.573857 286 6242ft 157kts
06-Oct-18 19:14 34.366652 -119.619892 286 6921ft 141kts
06-Oct-18 19:15 34.385823 -119.659755 309 7605ft 141kts
06-Oct-18 19:16 34.421819 -119.682979 327 8030ft 159kts
06-Oct-18 19:17 34.467831 -119.696930 341 8043ft 178kts
06-Oct-18 19:18 34.517053 -119.707839 341 7997ft 183kts
06-Oct-18 19:19 34.567447 -119.719260 341 7917ft 185kts
06-Oct-18 19:20 34.617471 -119.731441 340 7929ft 182kts
06-Oct-18 19:21 34.667191 -119.743704 340 7942ft 182kts
06-Oct-18 19:22 34.716723 -119.755888 340 7955ft 182kts
06-Oct-18 19:23 34.765863 -119.767780 340 7970ft 178kts
06-Oct-18 19:24 34.813911 -119.779259 340 7981ft 172kts
06-Oct-18 19:25 34.860077 -119.790716 338 7987ft 165kts
06-Oct-18 19:26 34.902890 -119.806971 335 8008ft 159kts
06-Oct-18 19:27 34.944593 -119.823266 336 8106ft 156kts
06-Oct-18 19:28 34.985272 -119.840718 326 8157ft 155kts
06-Oct-18 19:29 34.991063 -119.806540 174 5166ft 143kts
06-Oct-18 19:30 34.972004 -119.772398 104 3164ft 117kts
06-Oct-18 19:31 34.961874 -119.731570 122 2953ft 116kts
06-Oct-18 19:32 34.945439 -119.698166 128 2296ft 100kts
06-Oct-18 19:33 34.940573 -119.687233 296 2166ft 11kts
06-Oct-18 19:34 34.942629 -119.691266 7 2166ft 9kts
06-Oct-18 19:35 34.943312 -119.690763 22 2166ft 0kts

Navigation Log

Ident Type
Flight plan parsing failed, navigation log unavailable